Pell City, Alabama
Current Conditions -  °F | °C
As of 2:35 PM on Saturday 25 Oct 2014 (Local Time) from KASN Reporting Station
Clear Clear  
Wind Chill: 76°   Ceiling: Unl
Heat Index: 78°   Visibility: 10mi
Dew Point: 51°   Wind: 0mph
Humidity: 40%   Direction: NA
Pressure: 30.06"   Gusts: NA
Location:  33.59°N, 86.29°W
Report Text: KASN 251935Z AUTO 00000KT 10SM CLR 25/10 A3006 RMK AO2 T02470103
Loading
Personal Weather Stations






























Interactive Weather Map
Tropical Storm Tracking
New forecast layout! Learn more

10-Day Weather Forecast

Advertisements
Track Severe Weather on mobile